sensor_id;sensor_type;location;lat;lon;timestamp;temperature;humidity
9437;DHT22;4757;59.334;18.034;2023-02-20T00:00:48;-1.20;99.90
9437;DHT22;4757;59.334;18.034;2023-02-20T00:03:16;-1.10;99.90
9437;DHT22;4757;59.334;18.034;2023-02-20T00:05:43;-1.20;99.90
9437;DHT22;4757;59.334;18.034;2023-02-20T00:08:10;-1.10;99.90
9437;DHT22;4757;59.334;18.034;2023-02-20T00:10:37;-1.10;99.90
9437;DHT22;4757;59.334;18.034;2023-02-20T00:13:08;-1.10;99.90
9437;DHT22;4757;59.334;18.034;2023-02-20T00:22:17;-1.10;99.90
9437;DHT22;4757;59.334;18.034;2023-02-20T00:24:47;-1.10;99.90
9437;DHT22;4757;59.334;18.034;2023-02-20T00:27:14;-1.20;99.90
9437;DHT22;4757;59.334;18.034;2023-02-20T00:29:43;-1.20;99.90
9437;DHT22;4757;59.334;18.034;2023-02-20T00:32:11;-1.20;99.90
9437;DHT22;4757;59.334;18.034;2023-02-20T00:34:38;-1.10;99.90
9437;DHT22;4757;59.334;18.034;2023-02-20T00:37:05;-1.10;99.90
9437;DHT22;4757;59.334;18.034;2023-02-20T00:39:32;-1.20;99.90
9437;DHT22;4757;59.334;18.034;2023-02-20T00:42:00;-1.20;99.90
9437;DHT22;4757;59.334;18.034;2023-02-20T00:44:32;-1.20;99.90
9437;DHT22;4757;59.334;18.034;2023-02-20T00:47:01;-1.20;99.90
9437;DHT22;4757;59.334;18.034;2023-02-20T00:49:32;-1.20;99.90
9437;DHT22;4757;59.334;18.034;2023-02-20T00:52:04;-1.20;99.90
9437;DHT22;4757;59.334;18.034;2023-02-20T00:54:32;-1.20;99.90
9437;DHT22;4757;59.334;18.034;2023-02-20T00:56:59;-1.20;99.90
9437;DHT22;4757;59.334;18.034;2023-02-20T00:59:26;-1.20;99.90
9437;DHT22;4757;59.334;18.034;2023-02-20T01:01:53;-1.20;99.90
9437;DHT22;4757;59.334;18.034;2023-02-20T01:04:25;-1.20;99.90
9437;DHT22;4757;59.334;18.034;2023-02-20T01:06:53;-1.20;99.90
9437;DHT22;4757;59.334;18.034;2023-02-20T01:09:25;-1.20;99.90
9437;DHT22;4757;59.334;18.034;2023-02-20T01:11:54;-1.20;99.90
9437;DHT22;4757;59.334;18.034;2023-02-20T01:28:48;-1.10;99.90
9437;DHT22;4757;59.334;18.034;2023-02-20T01:35:42;-1.10;99.90
9437;DHT22;4757;59.334;18.034;2023-02-20T01:38:09;-1.10;99.90
9437;DHT22;4757;59.334;18.034;2023-02-20T01:40:36;-1.10;99.90
9437;DHT22;4757;59.334;18.034;2023-02-20T01:43:03;-1.10;99.90
9437;DHT22;4757;59.334;18.034;2023-02-20T01:45:36;-1.10;99.90
9437;DHT22;4757;59.334;18.034;2023-02-20T01:48:03;-1.10;99.90
9437;DHT22;4757;59.334;18.034;2023-02-20T01:50:38;-1.10;99.90
9437;DHT22;4757;59.334;18.034;2023-02-20T01:53:11;-1.10;99.90
9437;DHT22;4757;59.334;18.034;2023-02-20T01:55:43;-1.00;99.90
9437;DHT22;4757;59.334;18.034;2023-02-20T01:58:16;-1.00;99.90
9437;DHT22;4757;59.334;18.034;2023-02-20T02:00:44;-1.00;99.90
9437;DHT22;4757;59.334;18.034;2023-02-20T02:03:14;-1.00;99.90
9437;DHT22;4757;59.334;18.034;2023-02-20T02:05:46;-1.00;99.90
9437;DHT22;4757;59.334;18.034;2023-02-20T02:08:15;-1.00;99.90
9437;DHT22;4757;59.334;18.034;2023-02-20T02:13:17;-1.00;99.90
9437;DHT22;4757;59.334;18.034;2023-02-20T02:15:44;-1.00;99.90
9437;DHT22;4757;59.334;18.034;2023-02-20T02:18:30;-1.00;99.90
9437;DHT22;4757;59.334;18.034;2023-02-20T02:24:15;-0.90;99.90
9437;DHT22;4757;59.334;18.034;2023-02-20T02:30:01;-0.90;99.90
9437;DHT22;4757;59.334;18.034;2023-02-20T02:38:20;-1.00;99.90
9437;DHT22;4757;59.334;18.034;2023-02-20T02:43:43;-1.00;99.90
9437;DHT22;4757;59.334;18.034;2023-02-20T02:46:25;-1.00;99.90
9437;DHT22;4757;59.334;18.034;2023-02-20T02:48:59;-0.90;99.90
9437;DHT22;4757;59.334;18.034;2023-02-20T02:51:33;-1.00;99.90
9437;DHT22;4757;59.334;18.034;2023-02-20T02:54:15;-1.10;99.90
9437;DHT22;4757;59.334;18.034;2023-02-20T02:56:44;-1.20;99.90
9437;DHT22;4757;59.334;18.034;2023-02-20T02:59:25;-1.30;99.90
9437;DHT22;4757;59.334;18.034;2023-02-20T03:02:04;-1.30;99.90
9437;DHT22;4757;59.334;18.034;2023-02-20T03:04:34;-1.20;99.90
9437;DHT22;4757;59.334;18.034;2023-02-20T03:07:09;-1.10;99.90
9437;DHT22;4757;59.334;18.034;2023-02-20T03:10:23;-1.10;99.90
9437;DHT22;4757;59.334;18.034;2023-02-20T03:12:31;-1.20;99.90
9437;DHT22;4757;59.334;18.034;2023-02-20T03:15:19;-1.20;99.90
9437;DHT22;4757;59.334;18.034;2023-02-20T03:21:17;-1.20;99.90
9437;DHT22;4757;59.334;18.034;2023-02-20T03:23:41;-1.10;99.90
9437;DHT22;4757;59.334;18.034;2023-02-20T03:26:12;-1.10;99.90
9437;DHT22;4757;59.334;18.034;2023-02-20T03:29:00;-1.20;99.90
9437;DHT22;4757;59.334;18.034;2023-02-20T03:31:54;-1.10;99.90
9437;DHT22;4757;59.334;18.034;2023-02-20T03:34:42;-1.10;99.90
9437;DHT22;4757;59.334;18.034;2023-02-20T03:37:30;-1.20;99.90
9437;DHT22;4757;59.334;18.034;2023-02-20T03:40:19;-1.10;99.90
9437;DHT22;4757;59.334;18.034;2023-02-20T03:43:16;-1.10;99.90
9437;DHT22;4757;59.334;18.034;2023-02-20T03:45:54;-1.10;99.90
9437;DHT22;4757;59.334;18.034;2023-02-20T03:48:43;-1.20;99.90
9437;DHT22;4757;59.334;18.034;2023-02-20T03:51:11;-1.20;99.90
9437;DHT22;4757;59.334;18.034;2023-02-20T03:53:43;-1.20;99.90
9437;DHT22;4757;59.334;18.034;2023-02-20T03:56:15;-1.20;99.90
9437;DHT22;4757;59.334;18.034;2023-02-20T03:58:48;-1.20;99.90
9437;DHT22;4757;59.334;18.034;2023-02-20T04:01:17;-1.10;99.90
9437;DHT22;4757;59.334;18.034;2023-02-20T04:03:47;-1.10;99.90
9437;DHT22;4757;59.334;18.034;2023-02-20T04:06:15;-1.10;99.90
9437;DHT22;4757;59.334;18.034;2023-02-20T04:09:01;-1.20;99.90
9437;DHT22;4757;59.334;18.034;2023-02-20T04:11:33;-1.10;99.90
9437;DHT22;4757;59.334;18.034;2023-02-20T04:14:02;-1.10;99.90
9437;DHT22;4757;59.334;18.034;2023-02-20T04:16:35;-1.10;99.90
9437;DHT22;4757;59.334;18.034;2023-02-20T04:19:03;-1.00;99.90
9437;DHT22;4757;59.334;18.034;2023-02-20T04:21:54;-1.00;99.90
9437;DHT22;4757;59.334;18.034;2023-02-20T04:24:30;-1.10;99.90
9437;DHT22;4757;59.334;18.034;2023-02-20T04:26:58;-1.20;99.90
9437;DHT22;4757;59.334;18.034;2023-02-20T04:29:26;-1.10;99.90
9437;DHT22;4757;59.334;18.034;2023-02-20T04:31:53;-1.10;99.90
9437;DHT22;4757;59.334;18.034;2023-02-20T04:34:20;-1.10;99.90
9437;DHT22;4757;59.334;18.034;2023-02-20T04:36:47;-1.00;99.90
9437;DHT22;4757;59.334;18.034;2023-02-20T04:39:14;-1.00;99.90
9437;DHT22;4757;59.334;18.034;2023-02-20T04:41:41;-1.00;99.90
9437;DHT22;4757;59.334;18.034;2023-02-20T04:44:08;-1.00;99.90
9437;DHT22;4757;59.334;18.034;2023-02-20T04:46:54;-1.00;99.90
9437;DHT22;4757;59.334;18.034;2023-02-20T04:49:21;-0.90;99.90
9437;DHT22;4757;59.334;18.034;2023-02-20T04:51:48;-0.90;99.90
9437;DHT22;4757;59.334;18.034;2023-02-20T04:54:15;-0.80;99.90
9437;DHT22;4757;59.334;18.034;2023-02-20T04:56:42;-0.80;99.90
9437;DHT22;4757;59.334;18.034;2023-02-20T04:59:10;-0.70;99.90
9437;DHT22;4757;59.334;18.034;2023-02-20T05:01:37;-0.70;99.90
9437;DHT22;4757;59.334;18.034;2023-02-20T05:04:04;-0.70;99.90
9437;DHT22;4757;59.334;18.034;2023-02-20T05:06:31;-0.60;99.90
9437;DHT22;4757;59.334;18.034;2023-02-20T05:08:58;-0.70;99.90
9437;DHT22;4757;59.334;18.034;2023-02-20T05:11:25;-0.60;99.90
9437;DHT22;4757;59.334;18.034;2023-02-20T05:13:52;-0.60;99.90
9437;DHT22;4757;59.334;18.034;2023-02-20T05:16:19;-0.50;99.90
9437;DHT22;4757;59.334;18.034;2023-02-20T05:18:46;-0.50;99.90
9437;DHT22;4757;59.334;18.034;2023-02-20T05:21:14;-0.40;99.90
9437;DHT22;4757;59.334;18.034;2023-02-20T05:23:59;-0.40;99.90
9437;DHT22;4757;59.334;18.034;2023-02-20T05:26:26;-0.30;99.90
9437;DHT22;4757;59.334;18.034;2023-02-20T05:28:53;-0.30;99.90
9437;DHT22;4757;59.334;18.034;2023-02-20T05:31:20;-0.30;99.90
9437;DHT22;4757;59.334;18.034;2023-02-20T05:33:47;-0.20;99.90
9437;DHT22;4757;59.334;18.034;2023-02-20T05:36:15;-0.30;99.90
9437;DHT22;4757;59.334;18.034;2023-02-20T05:38:42;-0.30;99.90
9437;DHT22;4757;59.334;18.034;2023-02-20T05:41:15;-0.40;99.90
9437;DHT22;4757;59.334;18.034;2023-02-20T05:43:42;-0.40;99.90
9437;DHT22;4757;59.334;18.034;2023-02-20T05:46:09;-0.50;99.90
9437;DHT22;4757;59.334;18.034;2023-02-20T05:48:36;-0.50;99.90
9437;DHT22;4757;59.334;18.034;2023-02-20T05:51:03;-0.50;99.90
9437;DHT22;4757;59.334;18.034;2023-02-20T05:53:31;-0.60;99.90
9437;DHT22;4757;59.334;18.034;2023-02-20T05:55:58;-0.70;99.90
9437;DHT22;4757;59.334;18.034;2023-02-20T05:58:25;-0.80;99.90
9437;DHT22;4757;59.334;18.034;2023-02-20T06:00:52;-0.80;99.90
9437;DHT22;4757;59.334;18.034;2023-02-20T06:03:19;-0.80;99.90
9437;DHT22;4757;59.334;18.034;2023-02-20T06:05:46;-0.80;99.90
9437;DHT22;4757;59.334;18.034;2023-02-20T06:08:13;-0.80;99.90
9437;DHT22;4757;59.334;18.034;2023-02-20T06:10:40;-0.80;99.90
9437;DHT22;4757;59.334;18.034;2023-02-20T06:13:07;-0.90;99.90
9437;DHT22;4757;59.334;18.034;2023-02-20T06:15:34;-0.90;99.90
9437;DHT22;4757;59.334;18.034;2023-02-20T06:18:01;-1.00;99.90
9437;DHT22;4757;59.334;18.034;2023-02-20T06:20:28;-1.00;99.90
9437;DHT22;4757;59.334;18.034;2023-02-20T06:22:55;-1.00;99.90
9437;DHT22;4757;59.334;18.034;2023-02-20T06:25:23;-1.10;99.90
9437;DHT22;4757;59.334;18.034;2023-02-20T06:27:50;-1.10;99.90
9437;DHT22;4757;59.334;18.034;2023-02-20T06:30:17;-1.00;99.90
9437;DHT22;4757;59.334;18.034;2023-02-20T06:32:44;-1.10;99.90
9437;DHT22;4757;59.334;18.034;2023-02-20T06:35:11;-1.00;99.90
9437;DHT22;4757;59.334;18.034;2023-02-20T06:37:38;-1.10;99.90
9437;DHT22;4757;59.334;18.034;2023-02-20T06:40:06;-1.00;99.90
9437;DHT22;4757;59.334;18.034;2023-02-20T06:42:33;-1.00;99.90
9437;DHT22;4757;59.334;18.034;2023-02-20T06:45:00;-0.90;99.90
9437;DHT22;4757;59.334;18.034;2023-02-20T06:47:27;-0.90;99.90
9437;DHT22;4757;59.334;18.034;2023-02-20T06:49:54;-0.80;99.90
9437;DHT22;4757;59.334;18.034;2023-02-20T06:52:21;-0.90;99.90
9437;DHT22;4757;59.334;18.034;2023-02-20T06:54:48;-0.80;99.90
9437;DHT22;4757;59.334;18.034;2023-02-20T06:57:17;-0.80;99.90
9437;DHT22;4757;59.334;18.034;2023-02-20T06:59:44;-0.70;99.90
9437;DHT22;4757;59.334;18.034;2023-02-20T07:02:14;-0.70;99.90
9437;DHT22;4757;59.334;18.034;2023-02-20T07:04:42;-0.60;99.90
9437;DHT22;4757;59.334;18.034;2023-02-20T07:07:09;-0.60;99.90
9437;DHT22;4757;59.334;18.034;2023-02-20T07:09:36;-0.50;99.90
9437;DHT22;4757;59.334;18.034;2023-02-20T07:12:03;-0.40;99.90
9437;DHT22;4757;59.334;18.034;2023-02-20T07:14:30;-0.40;99.90
9437;DHT22;4757;59.334;18.034;2023-02-20T07:16:57;-0.30;99.90
9437;DHT22;4757;59.334;18.034;2023-02-20T07:19:25;-0.20;99.90
9437;DHT22;4757;59.334;18.034;2023-02-20T07:21:52;-0.20;99.90
9437;DHT22;4757;59.334;18.034;2023-02-20T07:24:19;-0.10;99.90
9437;DHT22;4757;59.334;18.034;2023-02-20T07:26:46;-0.10;99.90
9437;DHT22;4757;59.334;18.034;2023-02-20T07:29:14;0.00;99.90
9437;DHT22;4757;59.334;18.034;2023-02-20T07:31:40;0.00;99.90
9437;DHT22;4757;59.334;18.034;2023-02-20T07:34:08;0.10;99.90
9437;DHT22;4757;59.334;18.034;2023-02-20T07:36:35;0.20;99.90
9437;DHT22;4757;59.334;18.034;2023-02-20T07:39:03;0.20;99.90
9437;DHT22;4757;59.334;18.034;2023-02-20T07:41:32;0.20;99.90
9437;DHT22;4757;59.334;18.034;2023-02-20T07:44:03;0.30;99.90
9437;DHT22;4757;59.334;18.034;2023-02-20T07:46:30;0.40;99.90
9437;DHT22;4757;59.334;18.034;2023-02-20T07:49:01;0.40;99.90
9437;DHT22;4757;59.334;18.034;2023-02-20T07:51:28;0.50;99.90
9437;DHT22;4757;59.334;18.034;2023-02-20T07:53:55;0.50;99.90
9437;DHT22;4757;59.334;18.034;2023-02-20T07:56:29;0.60;99.90
9437;DHT22;4757;59.334;18.034;2023-02-20T07:58:57;0.70;99.90
9437;DHT22;4757;59.334;18.034;2023-02-20T08:01:26;0.70;99.90
9437;DHT22;4757;59.334;18.034;2023-02-20T08:03:53;0.80;99.90
9437;DHT22;4757;59.334;18.034;2023-02-20T08:06:20;0.80;99.90
9437;DHT22;4757;59.334;18.034;2023-02-20T08:08:48;0.90;99.90
9437;DHT22;4757;59.334;18.034;2023-02-20T08:11:21;0.90;99.90
9437;DHT22;4757;59.334;18.034;2023-02-20T08:13:48;1.00;99.90
9437;DHT22;4757;59.334;18.034;2023-02-20T08:16:16;1.00;99.90
9437;DHT22;4757;59.334;18.034;2023-02-20T08:18:43;1.00;99.90
9437;DHT22;4757;59.334;18.034;2023-02-20T08:21:10;1.00;99.90
9437;DHT22;4757;59.334;18.034;2023-02-20T08:23:37;1.00;99.90
9437;DHT22;4757;59.334;18.034;2023-02-20T08:26:04;1.00;99.90
9437;DHT22;4757;59.334;18.034;2023-02-20T08:28:31;1.10;99.90
9437;DHT22;4757;59.334;18.034;2023-02-20T08:30:58;1.10;99.90
9437;DHT22;4757;59.334;18.034;2023-02-20T08:33:26;1.10;99.90
9437;DHT22;4757;59.334;18.034;2023-02-20T08:35:53;1.10;99.90
9437;DHT22;4757;59.334;18.034;2023-02-20T08:38:32;1.20;99.90
9437;DHT22;4757;59.334;18.034;2023-02-20T08:41:04;1.20;99.90
9437;DHT22;4757;59.334;18.034;2023-02-20T08:43:34;1.20;99.90
9437;DHT22;4757;59.334;18.034;2023-02-20T08:46:03;1.20;99.90
9437;DHT22;4757;59.334;18.034;2023-02-20T08:48:30;1.10;99.90
9437;DHT22;4757;59.334;18.034;2023-02-20T08:50:57;1.10;99.90
9437;DHT22;4757;59.334;18.034;2023-02-20T08:53:24;1.10;99.90
9437;DHT22;4757;59.334;18.034;2023-02-20T08:55:51;1.10;99.90
9437;DHT22;4757;59.334;18.034;2023-02-20T08:58:20;1.10;99.90
9437;DHT22;4757;59.334;18.034;2023-02-20T09:00:48;1.10;99.90
9437;DHT22;4757;59.334;18.034;2023-02-20T09:03:15;1.10;99.90
9437;DHT22;4757;59.334;18.034;2023-02-20T09:05:43;1.10;99.90
9437;DHT22;4757;59.334;18.034;2023-02-20T09:08:10;1.10;99.90
9437;DHT22;4757;59.334;18.034;2023-02-20T09:10:37;1.10;99.90
9437;DHT22;4757;59.334;18.034;2023-02-20T09:13:04;1.10;99.90
9437;DHT22;4757;59.334;18.034;2023-02-20T09:15:31;1.00;99.90
9437;DHT22;4757;59.334;18.034;2023-02-20T09:18:10;1.00;99.90
9437;DHT22;4757;59.334;18.034;2023-02-20T09:20:38;1.00;99.90
9437;DHT22;4757;59.334;18.034;2023-02-20T09:23:06;1.00;99.90
9437;DHT22;4757;59.334;18.034;2023-02-20T09:25:36;1.00;99.90
9437;DHT22;4757;59.334;18.034;2023-02-20T09:28:06;1.00;99.90
9437;DHT22;4757;59.334;18.034;2023-02-20T09:30:34;1.00;99.90
9437;DHT22;4757;59.334;18.034;2023-02-20T09:33:01;1.00;99.90
9437;DHT22;4757;59.334;18.034;2023-02-20T09:35:29;1.00;99.90
9437;DHT22;4757;59.334;18.034;2023-02-20T09:37:57;1.00;99.90
9437;DHT22;4757;59.334;18.034;2023-02-20T09:40:26;1.00;99.90
9437;DHT22;4757;59.334;18.034;2023-02-20T09:46:08;1.00;99.90
9437;DHT22;4757;59.334;18.034;2023-02-20T09:48:44;0.90;99.90
9437;DHT22;4757;59.334;18.034;2023-02-20T09:51:20;1.00;99.90
9437;DHT22;4757;59.334;18.034;2023-02-20T09:53:57;0.90;99.90
9437;DHT22;4757;59.334;18.034;2023-02-20T09:56:28;0.90;99.90
9437;DHT22;4757;59.334;18.034;2023-02-20T09:59:15;0.90;99.90
9437;DHT22;4757;59.334;18.034;2023-02-20T10:01:56;1.00;99.90
9437;DHT22;4757;59.334;18.034;2023-02-20T10:04:29;0.90;99.90
9437;DHT22;4757;59.334;18.034;2023-02-20T10:07:07;1.00;99.90
9437;DHT22;4757;59.334;18.034;2023-02-20T10:09:35;1.10;99.90
9437;DHT22;4757;59.334;18.034;2023-02-20T10:17:33;1.10;99.90
9437;DHT22;4757;59.334;18.034;2023-02-20T10:25:35;1.30;99.90
9437;DHT22;4757;59.334;18.034;2023-02-20T10:28:08;1.30;99.90
9437;DHT22;4757;59.334;18.034;2023-02-20T10:33:32;1.30;99.90
9437;DHT22;4757;59.334;18.034;2023-02-20T10:38:53;1.40;99.90
9437;DHT22;4757;59.334;18.034;2023-02-20T10:41:28;1.50;99.90
9437;DHT22;4757;59.334;18.034;2023-02-20T10:44:23;1.50;99.90
9437;DHT22;4757;59.334;18.034;2023-02-20T10:47:04;1.50;99.90
9437;DHT22;4757;59.334;18.034;2023-02-20T10:52:21;1.60;99.90
9437;DHT22;4757;59.334;18.034;2023-02-20T10:57:36;1.60;99.90
9437;DHT22;4757;59.334;18.034;2023-02-20T11:00:16;1.60;99.90
9437;DHT22;4757;59.334;18.034;2023-02-20T11:02:56;1.70;99.90
9437;DHT22;4757;59.334;18.034;2023-02-20T11:05:27;1.70;99.90
9437;DHT22;4757;59.334;18.034;2023-02-20T11:07:54;1.80;99.90
9437;DHT22;4757;59.334;18.034;2023-02-20T11:10:21;1.80;99.90
9437;DHT22;4757;59.334;18.034;2023-02-20T11:12:55;1.80;99.90
9437;DHT22;4757;59.334;18.034;2023-02-20T11:15:28;1.80;99.90
9437;DHT22;4757;59.334;18.034;2023-02-20T11:17:57;1.90;99.90
9437;DHT22;4757;59.334;18.034;2023-02-20T11:23:09;1.90;99.90
9437;DHT22;4757;59.334;18.034;2023-02-20T11:25:38;2.00;99.90
9437;DHT22;4757;59.334;18.034;2023-02-20T11:28:22;2.00;99.90
9437;DHT22;4757;59.334;18.034;2023-02-20T11:31:02;2.10;99.90
9437;DHT22;4757;59.334;18.034;2023-02-20T11:33:34;2.10;99.90
9437;DHT22;4757;59.334;18.034;2023-02-20T11:36:12;2.20;99.90
9437;DHT22;4757;59.334;18.034;2023-02-20T11:38:44;2.30;99.90
9437;DHT22;4757;59.334;18.034;2023-02-20T11:41:22;2.30;99.90
9437;DHT22;4757;59.334;18.034;2023-02-20T11:46:38;2.40;99.90
9437;DHT22;4757;59.334;18.034;2023-02-20T11:49:11;2.40;99.90
9437;DHT22;4757;59.334;18.034;2023-02-20T11:51:47;2.50;99.90
9437;DHT22;4757;59.334;18.034;2023-02-20T11:54:24;2.50;99.90
9437;DHT22;4757;59.334;18.034;2023-02-20T11:59:52;2.60;99.90
9437;DHT22;4757;59.334;18.034;2023-02-20T12:02:33;2.70;99.90
9437;DHT22;4757;59.334;18.034;2023-02-20T12:05:08;2.80;99.90
9437;DHT22;4757;59.334;18.034;2023-02-20T12:10:09;2.80;99.90
9437;DHT22;4757;59.334;18.034;2023-02-20T12:12:37;2.90;99.90
9437;DHT22;4757;59.334;18.034;2023-02-20T12:15:12;2.90;99.90
9437;DHT22;4757;59.334;18.034;2023-02-20T12:20:27;2.90;99.90
9437;DHT22;4757;59.334;18.034;2023-02-20T12:23:15;2.90;99.90
9437;DHT22;4757;59.334;18.034;2023-02-20T12:28:35;3.00;99.90
9437;DHT22;4757;59.334;18.034;2023-02-20T12:31:24;3.00;99.90
9437;DHT22;4757;59.334;18.034;2023-02-20T12:34:07;3.10;99.90
9437;DHT22;4757;59.334;18.034;2023-02-20T12:36:40;3.10;99.90
9437;DHT22;4757;59.334;18.034;2023-02-20T12:39:30;3.10;99.90
9437;DHT22;4757;59.334;18.034;2023-02-20T12:50:03;3.10;99.90
9437;DHT22;4757;59.334;18.034;2023-02-20T13:01:08;3.10;99.90
9437;DHT22;4757;59.334;18.034;2023-02-20T13:06:07;3.40;99.90
9437;DHT22;4757;59.334;18.034;2023-02-20T13:11:32;3.60;99.90
9437;DHT22;4757;59.334;18.034;2023-02-20T13:17:00;3.40;99.90
9437;DHT22;4757;59.334;18.034;2023-02-20T13:22:28;3.40;99.90
9437;DHT22;4757;59.334;18.034;2023-02-20T13:28:01;3.40;99.90
9437;DHT22;4757;59.334;18.034;2023-02-20T13:30:31;3.30;99.90
9437;DHT22;4757;59.334;18.034;2023-02-20T13:33:27;3.20;99.90
9437;DHT22;4757;59.334;18.034;2023-02-20T13:35:56;3.30;99.90
9437;DHT22;4757;59.334;18.034;2023-02-20T13:38:25;3.20;99.90
9437;DHT22;4757;59.334;18.034;2023-02-20T13:48:52;3.30;99.90
9437;DHT22;4757;59.334;18.034;2023-02-20T13:51:28;3.30;99.90
9437;DHT22;4757;59.334;18.034;2023-02-20T13:54:42;3.30;99.90
9437;DHT22;4757;59.334;18.034;2023-02-20T13:56:54;3.30;99.90
9437;DHT22;4757;59.334;18.034;2023-02-20T13:59:26;3.30;99.90
9437;DHT22;4757;59.334;18.034;2023-02-20T14:02:23;3.40;99.90
9437;DHT22;4757;59.334;18.034;2023-02-20T14:05:04;3.30;99.90
9437;DHT22;4757;59.334;18.034;2023-02-20T14:07:33;3.30;99.90
9437;DHT22;4757;59.334;18.034;2023-02-20T14:13:10;3.30;99.90
9437;DHT22;4757;59.334;18.034;2023-02-20T14:15:55;3.30;99.90
9437;DHT22;4757;59.334;18.034;2023-02-20T14:18:31;3.30;99.90
9437;DHT22;4757;59.334;18.034;2023-02-20T14:21:19;3.40;99.90
9437;DHT22;4757;59.334;18.034;2023-02-20T14:23:50;3.40;99.90
9437;DHT22;4757;59.334;18.034;2023-02-20T14:28:49;3.30;99.90
9437;DHT22;4757;59.334;18.034;2023-02-20T14:33:47;3.30;99.90
9437;DHT22;4757;59.334;18.034;2023-02-20T14:36:42;3.20;99.90
9437;DHT22;4757;59.334;18.034;2023-02-20T14:39:43;3.30;99.90
9437;DHT22;4757;59.334;18.034;2023-02-20T14:42:16;3.30;99.90
9437;DHT22;4757;59.334;18.034;2023-02-20T14:44:52;3.30;99.90
9437;DHT22;4757;59.334;18.034;2023-02-20T14:47:21;3.30;99.90
9437;DHT22;4757;59.334;18.034;2023-02-20T14:49:49;3.20;99.90
9437;DHT22;4757;59.334;18.034;2023-02-20T14:52:22;3.20;99.90
9437;DHT22;4757;59.334;18.034;2023-02-20T14:55:01;3.20;99.90
9437;DHT22;4757;59.334;18.034;2023-02-20T14:57:30;3.20;99.90
9437;DHT22;4757;59.334;18.034;2023-02-20T15:00:38;3.20;99.90
9437;DHT22;4757;59.334;18.034;2023-02-20T15:06:01;3.20;99.90
9437;DHT22;4757;59.334;18.034;2023-02-20T15:08:32;3.20;99.90
9437;DHT22;4757;59.334;18.034;2023-02-20T15:11:07;3.10;99.90
9437;DHT22;4757;59.334;18.034;2023-02-20T15:13:39;3.10;99.90
9437;DHT22;4757;59.334;18.034;2023-02-20T15:16:25;3.10;99.90
9437;DHT22;4757;59.334;18.034;2023-02-20T15:18:53;3.10;99.90
9437;DHT22;4757;59.334;18.034;2023-02-20T15:21:40;3.10;99.90
9437;DHT22;4757;59.334;18.034;2023-02-20T15:24:35;3.00;99.90
9437;DHT22;4757;59.334;18.034;2023-02-20T15:27:12;3.00;99.90
9437;DHT22;4757;59.334;18.034;2023-02-20T15:29:41;3.00;99.90
9437;DHT22;4757;59.334;18.034;2023-02-20T15:32:21;3.00;99.90
9437;DHT22;4757;59.334;18.034;2023-02-20T15:34:53;2.90;99.90
9437;DHT22;4757;59.334;18.034;2023-02-20T15:37:31;2.90;99.90
9437;DHT22;4757;59.334;18.034;2023-02-20T15:40:20;2.90;99.90
9437;DHT22;4757;59.334;18.034;2023-02-20T15:42:50;2.90;99.90
9437;DHT22;4757;59.334;18.034;2023-02-20T15:45:24;2.80;99.90
9437;DHT22;4757;59.334;18.034;2023-02-20T15:47:51;2.80;99.90
9437;DHT22;4757;59.334;18.034;2023-02-20T15:50:18;2.80;99.90
